createdAt,value
2022-11-06T00:01:39.104Z,1.17
2022-11-06T00:04:41.285Z,1.40
2022-11-06T00:07:46.576Z,1.15
2022-11-06T00:10:48.704Z,0.90
2022-11-06T00:13:52.696Z,0.93
2022-11-06T00:16:54.844Z,1.00
2022-11-06T00:19:57.009Z,1.00
2022-11-06T00:23:00.707Z,0.82
2022-11-06T00:26:07.945Z,1.20
2022-11-06T00:29:14.349Z,1.00
2022-11-06T00:32:16.545Z,0.90
2022-11-06T00:35:18.803Z,1.23
2022-11-06T00:38:21.527Z,0.95
2022-11-06T00:41:24.199Z,0.82
2022-11-06T00:44:26.577Z,1.10
2022-11-06T00:47:28.792Z,1.20
2022-11-06T00:50:33.229Z,1.27
2022-11-06T00:53:36.558Z,0.90
2022-11-06T00:56:39.510Z,0.90
2022-11-06T00:59:41.649Z,1.00
2022-11-06T01:02:45.739Z,1.20
2022-11-06T01:05:47.975Z,1.40
2022-11-06T01:08:50.772Z,1.27
2022-11-06T01:12:13.267Z,1.20
2022-11-06T01:15:16.219Z,1.20
2022-11-06T01:18:18.371Z,1.33
2022-11-06T01:21:25.515Z,1.27
2022-11-06T01:24:28.766Z,1.20
2022-11-06T01:27:31.043Z,1.40
2022-11-06T01:30:37.434Z,1.58
2022-11-06T01:33:40.193Z,1.70
2022-11-06T01:36:42.406Z,1.40
2022-11-06T01:39:44.802Z,1.70
2022-11-06T01:42:46.993Z,1.50
2022-11-06T01:45:54.976Z,1.52
2022-11-06T01:49:23.563Z,1.83
2022-11-06T01:52:27.469Z,2.00
2022-11-06T01:55:36.325Z,2.08
2022-11-06T01:58:40.994Z,2.00
2022-11-06T02:01:47.896Z,2.38
2022-11-06T02:04:50.225Z,2.40
2022-11-06T02:07:53.521Z,2.30
2022-11-06T02:10:56.014Z,2.67
2022-11-06T02:14:02.795Z,2.40
2022-11-06T02:17:12.349Z,2.25
2022-11-06T02:20:34.713Z,2.40
2022-11-06T02:23:50.887Z,2.80
2022-11-06T02:27:16.228Z,2.90
2022-11-06T02:30:18.833Z,3.08
2022-11-06T02:33:35.260Z,2.72
2022-11-06T02:36:42.644Z,2.53
2022-11-06T02:39:45.806Z,2.47
2022-11-06T02:42:51.042Z,2.50
2022-11-06T02:45:59.207Z,2.80
2022-11-06T02:49:15.374Z,2.97
2022-11-06T02:52:24.015Z,2.70
2022-11-06T02:55:30.614Z,3.10
2022-11-06T02:58:49.370Z,2.95
2022-11-06T03:01:59.163Z,2.83
2022-11-06T03:05:39.828Z,3.15
2022-11-06T03:08:52.339Z,3.25
2022-11-06T03:12:01.484Z,2.70
2022-11-06T03:15:08.607Z,3.03
2022-11-06T03:18:16.198Z,2.65
2022-11-06T03:21:20.548Z,2.83
2022-11-06T03:24:42.868Z,2.63
2022-11-06T03:27:50.429Z,2.93
2022-11-06T03:30:55.055Z,2.83
2022-11-06T03:34:05.348Z,2.75
2022-11-06T03:37:12.275Z,3.50
2022-11-06T03:40:18.198Z,3.15
2022-11-06T03:43:23.824Z,3.20
2022-11-06T03:46:26.377Z,3.33
2022-11-06T03:49:36.674Z,3.10
2022-11-06T03:52:43.410Z,3.05
2022-11-06T03:55:50.197Z,2.78
2022-11-06T03:58:54.128Z,2.80
2022-11-06T04:01:56.933Z,2.90
2022-11-06T04:05:01.058Z,3.10
2022-11-06T04:08:22.404Z,2.92
2022-11-06T04:11:44.998Z,3.10
2022-11-06T04:14:50.217Z,3.40
2022-11-06T04:17:52.441Z,2.85
2022-11-06T04:21:22.255Z,2.95
2022-11-06T04:24:50.897Z,3.40
2022-11-06T04:28:05.778Z,3.15
2022-11-06T04:31:22.886Z,2.87
2022-11-06T04:34:35.954Z,3.50
2022-11-06T04:37:52.196Z,3.40
2022-11-06T04:40:59.724Z,3.40
2022-11-06T04:44:09.986Z,3.28
2022-11-06T04:47:17.668Z,3.50
2022-11-06T04:50:22.675Z,3.60
2022-11-06T04:53:26.093Z,3.40
2022-11-06T04:56:35.167Z,3.00
2022-11-06T04:59:37.917Z,2.92
2022-11-06T05:02:40.693Z,3.47
2022-11-06T05:05:43.134Z,3.58
2022-11-06T05:08:46.215Z,3.10
2022-11-06T05:11:48.353Z,3.10
2022-11-06T05:14:50.492Z,3.35
2022-11-06T05:17:52.949Z,3.77
2022-11-06T05:21:15.383Z,3.92
2022-11-06T05:24:17.665Z,2.92
2022-11-06T05:27:19.787Z,3.80
2022-11-06T05:30:22.878Z,3.40
2022-11-06T05:33:25.474Z,3.70
2022-11-06T05:36:27.620Z,3.78
2022-11-06T05:39:29.793Z,3.38
2022-11-06T05:42:31.914Z,3.42
2022-11-06T05:45:34.085Z,3.67
2022-11-06T05:48:36.286Z,3.90
2022-11-06T05:51:38.521Z,3.58
2022-11-06T05:54:40.687Z,3.35
2022-11-06T05:57:43.180Z,3.85
2022-11-06T06:00:45.296Z,3.83
2022-11-06T06:03:47.470Z,3.97
2022-11-06T06:06:49.616Z,3.95
2022-11-06T06:09:51.779Z,3.75
2022-11-06T06:12:53.898Z,3.75
2022-11-06T06:16:01.175Z,3.65
2022-11-06T06:19:03.759Z,3.80
2022-11-06T06:22:06.082Z,4.47
2022-11-06T06:25:16.211Z,4.00
2022-11-06T06:28:19.923Z,4.50
2022-11-06T06:31:22.401Z,5.13
2022-11-06T06:34:24.593Z,5.37
2022-11-06T06:37:26.774Z,5.60
2022-11-06T06:40:29.861Z,5.10
2022-11-06T06:43:32.772Z,4.63
2022-11-06T06:46:34.904Z,5.15
2022-11-06T06:49:37.005Z,5.47
2022-11-06T06:52:39.185Z,4.88
2022-11-06T06:55:42.081Z,4.72
2022-11-06T06:58:44.538Z,4.53
2022-11-06T07:01:46.846Z,4.90
2022-11-06T07:04:49.199Z,4.90
2022-11-06T07:07:51.617Z,4.40
2022-11-06T07:10:53.820Z,4.85
2022-11-06T07:13:56.020Z,4.38
2022-11-06T07:16:58.205Z,4.20
2022-11-06T07:20:00.376Z,4.20
2022-11-06T07:23:07.540Z,4.07
2022-11-06T07:26:10.044Z,4.18
2022-11-06T07:29:12.196Z,3.95
2022-11-06T07:32:14.333Z,4.57
2022-11-06T07:35:16.483Z,4.13
2022-11-06T07:38:20.866Z,3.83
2022-11-06T07:41:23.042Z,4.03
2022-11-06T07:44:27.177Z,4.07
2022-11-06T07:47:33.780Z,3.70
2022-11-06T07:50:35.974Z,3.47
2022-11-06T07:53:41.626Z,4.05
2022-11-06T07:56:43.837Z,3.70
2022-11-06T07:59:49.102Z,4.00
2022-11-06T08:02:55.766Z,4.90
2022-11-06T08:05:59.042Z,4.40
2022-11-06T08:09:01.187Z,4.15
2022-11-06T08:12:03.526Z,4.00
2022-11-06T08:15:06.159Z,15.90
2022-11-06T08:18:12.231Z,47.13
2022-11-06T08:21:14.749Z,30.63
2022-11-06T08:24:21.736Z,6.10
2022-11-06T08:27:24.391Z,13.65
2022-11-06T08:30:28.033Z,27.58
2022-11-06T08:33:30.214Z,20.60
2022-11-06T08:36:37.034Z,8.67
2022-11-06T08:39:39.468Z,4.78
2022-11-06T08:42:41.679Z,6.38
2022-11-06T08:45:43.889Z,3.97
2022-11-06T08:48:46.132Z,4.25
2022-11-06T08:51:48.464Z,4.70
2022-11-06T08:54:51.221Z,12.50
2022-11-06T08:57:56.794Z,27.73
2022-11-06T09:00:59.085Z,7.95
2022-11-06T09:04:01.327Z,4.35
2022-11-06T09:07:03.512Z,3.80
2022-11-06T09:10:06.263Z,4.10
2022-11-06T09:13:08.452Z,4.70
2022-11-06T09:16:15.637Z,4.03
2022-11-06T09:19:18.516Z,4.43
2022-11-06T09:22:20.953Z,3.73
2022-11-06T09:25:23.648Z,5.32
2022-11-06T09:28:25.852Z,16.63
2022-11-06T09:31:28.079Z,15.05
2022-11-06T09:34:33.994Z,19.42
2022-11-06T09:37:36.120Z,7.30
2022-11-06T09:40:42.646Z,8.38
2022-11-06T09:44:06.076Z,4.30
2022-11-06T09:47:20.229Z,4.07
2022-11-06T09:50:27.136Z,3.70
2022-11-06T09:53:42.146Z,3.60
2022-11-06T09:56:45.686Z,3.10
2022-11-06T09:59:48.757Z,2.90
2022-11-06T10:02:52.158Z,2.78
2022-11-06T10:05:54.702Z,4.13
2022-11-06T10:08:59.890Z,4.00
2022-11-06T10:12:10.860Z,3.38
2022-11-06T10:15:19.552Z,3.28
2022-11-06T10:18:36.974Z,3.42
2022-11-06T10:21:57.746Z,2.75
2022-11-06T10:25:08.905Z,2.40
2022-11-06T10:29:02.059Z,2.40
2022-11-06T10:32:19.636Z,2.85
2022-11-06T10:35:42.699Z,2.40
2022-11-06T10:38:47.550Z,2.47
2022-11-06T10:41:54.448Z,3.80
2022-11-06T10:45:08.905Z,2.88
2022-11-06T10:48:37.097Z,2.40
2022-11-06T10:52:26.404Z,2.47
2022-11-06T10:55:40.145Z,2.70
2022-11-06T10:58:43.549Z,2.70
2022-11-06T11:01:46.855Z,3.78
2022-11-06T11:04:54.006Z,4.90
2022-11-06T11:08:00.054Z,3.10
2022-11-06T11:11:15.169Z,3.65
2022-11-06T11:14:29.729Z,2.50
2022-11-06T11:17:32.618Z,2.38
2022-11-06T11:20:37.346Z,2.63
2022-11-06T11:23:40.023Z,3.10
2022-11-06T11:26:55.883Z,3.20
2022-11-06T11:29:58.451Z,3.13
2022-11-06T11:33:00.959Z,2.80
2022-11-06T11:36:06.888Z,2.63
2022-11-06T11:39:09.367Z,2.90
2022-11-06T11:42:23.668Z,2.85
2022-11-06T11:45:26.413Z,1.83
2022-11-06T11:48:50.605Z,3.42
2022-11-06T11:51:52.793Z,4.78
2022-11-06T11:54:55.140Z,4.63
2022-11-06T11:58:01.548Z,3.67
2022-11-06T12:01:07.841Z,2.70
2022-11-06T12:04:15.941Z,3.45
2022-11-06T12:07:31.871Z,2.47
2022-11-06T12:10:40.604Z,1.70
2022-11-06T12:13:43.693Z,1.80
2022-11-06T12:16:49.958Z,1.70
2022-11-06T12:19:54.303Z,1.80
2022-11-06T12:22:58.807Z,1.85
2022-11-06T12:26:29.449Z,2.30
2022-11-06T12:29:38.274Z,19.65
2022-11-06T12:32:45.151Z,5.10
2022-11-06T12:35:53.781Z,6.85
2022-11-06T12:39:14.901Z,5.15
2022-11-06T12:42:19.018Z,2.97
2022-11-06T12:45:32.139Z,4.53
2022-11-06T12:48:53.569Z,13.43
2022-11-06T12:52:01.162Z,5.63
2022-11-06T12:55:09.791Z,3.35
2022-11-06T12:58:26.500Z,12.75
2022-11-06T13:01:46.744Z,4.57
2022-11-06T13:05:18.867Z,2.30
2022-11-06T13:08:37.219Z,2.75
2022-11-06T13:11:40.759Z,2.22
2022-11-06T13:14:54.835Z,2.28
2022-11-06T13:18:02.267Z,2.30
2022-11-06T13:21:15.614Z,2.60
2022-11-06T13:24:29.107Z,2.10
2022-11-06T13:27:39.089Z,1.83
2022-11-06T13:30:43.527Z,2.15
2022-11-06T13:33:49.144Z,2.38
2022-11-06T13:36:51.461Z,2.27
2022-11-06T13:40:04.652Z,2.20
2022-11-06T13:43:10.096Z,1.85
2022-11-06T13:46:43.242Z,2.53
2022-11-06T13:50:17.736Z,2.45
2022-11-06T13:54:02.377Z,2.40
2022-11-06T13:57:17.979Z,3.13
2022-11-06T14:00:20.551Z,2.63
2022-11-06T14:03:28.688Z,2.40
2022-11-06T14:06:35.196Z,2.55
2022-11-06T14:09:41.949Z,2.60
2022-11-06T14:12:47.953Z,2.20
2022-11-06T14:16:18.630Z,2.80
2022-11-06T14:19:27.175Z,2.75
2022-11-06T14:22:32.344Z,3.42
2022-11-06T14:25:40.412Z,3.37
2022-11-06T14:28:43.661Z,3.53
2022-11-06T14:32:13.566Z,2.70
2022-11-06T14:35:34.213Z,6.22
2022-11-06T14:38:36.943Z,5.05
2022-11-06T14:41:40.223Z,4.17
2022-11-06T14:44:45.801Z,5.18
2022-11-06T14:47:54.521Z,5.15
2022-11-06T14:50:57.415Z,4.72
2022-11-06T14:54:02.109Z,4.30
2022-11-06T14:57:04.741Z,4.50
2022-11-06T15:00:07.936Z,4.60
2022-11-06T15:03:35.173Z,4.32
2022-11-06T15:06:44.479Z,4.60
2022-11-06T15:09:47.212Z,4.55
2022-11-06T15:13:10.597Z,4.03
2022-11-06T15:16:13.104Z,3.88
2022-11-06T15:19:19.684Z,3.78
2022-11-06T15:22:29.106Z,3.28
2022-11-06T15:25:31.971Z,3.33
2022-11-06T15:28:49.623Z,3.13
2022-11-06T15:32:01.011Z,3.25
2022-11-06T15:35:03.405Z,9.77
2022-11-06T15:38:10.822Z,5.97
2022-11-06T15:41:25.505Z,5.90
2022-11-06T15:44:28.201Z,15.43
2022-11-06T15:47:33.171Z,7.55
2022-11-06T15:50:37.302Z,6.97
2022-11-06T15:53:50.482Z,6.72
2022-11-06T15:57:06.183Z,7.18
2022-11-06T16:00:20.989Z,12.53
2022-11-06T16:03:30.857Z,14.32
2022-11-06T16:06:33.907Z,21.25
2022-11-06T16:09:37.342Z,13.45
2022-11-06T16:12:39.865Z,12.23
2022-11-06T16:15:42.942Z,11.23
2022-11-06T16:18:46.807Z,10.93
2022-11-06T16:22:10.033Z,10.07
2022-11-06T16:25:18.396Z,10.30
2022-11-06T16:28:22.352Z,10.85
2022-11-06T16:31:27.801Z,10.03
2022-11-06T16:34:40.014Z,11.10
2022-11-06T16:37:43.125Z,13.50
2022-11-06T16:40:52.882Z,13.20
2022-11-06T16:44:30.530Z,16.65
2022-11-06T16:47:33.763Z,17.17
2022-11-06T16:51:10.501Z,20.52
2022-11-06T16:54:19.961Z,12.73
2022-11-06T16:57:26.044Z,14.77
2022-11-06T17:00:32.184Z,16.80
2022-11-06T17:03:40.400Z,20.93
2022-11-06T17:06:45.144Z,20.73
2022-11-06T17:09:48.325Z,21.80
2022-11-06T17:12:50.946Z,22.10
2022-11-06T17:15:58.743Z,21.08
2022-11-06T17:19:01.357Z,19.10
2022-11-06T17:22:10.626Z,16.08
2022-11-06T17:25:13.477Z,16.25
2022-11-06T17:28:16.796Z,15.00
2022-11-06T17:31:22.264Z,14.93
2022-11-06T17:34:29.873Z,14.37
2022-11-06T17:37:42.246Z,15.25
2022-11-06T17:40:48.226Z,15.20
2022-11-06T17:43:51.007Z,15.45
2022-11-06T17:46:53.841Z,15.07
2022-11-06T17:49:56.516Z,14.43
2022-11-06T17:52:59.728Z,16.73
2022-11-06T17:56:04.525Z,16.83
2022-11-06T17:59:09.112Z,18.45
2022-11-06T18:02:25.294Z,20.35
2022-11-06T18:05:41.941Z,19.03
2022-11-06T18:08:45.096Z,19.20
2022-11-06T18:11:50.532Z,16.50
2022-11-06T18:14:54.270Z,16.00
2022-11-06T18:17:59.213Z,15.75
2022-11-06T18:21:02.422Z,16.10
2022-11-06T18:24:05.863Z,14.73
2022-11-06T18:27:08.885Z,12.95
2022-11-06T18:30:12.193Z,13.13
2022-11-06T18:33:19.451Z,13.32
2022-11-06T18:36:22.368Z,14.20
2022-11-06T18:39:26.201Z,13.70
2022-11-06T18:42:29.062Z,13.65
2022-11-06T18:45:31.830Z,13.20
2022-11-06T18:48:38.029Z,13.40
2022-11-06T18:51:42.175Z,12.37
2022-11-06T18:54:46.067Z,12.05
2022-11-06T18:57:48.759Z,13.80
2022-11-06T19:00:51.145Z,14.80
2022-11-06T19:03:53.713Z,14.45
2022-11-06T19:06:56.060Z,14.00
2022-11-06T19:09:59.920Z,13.35
2022-11-06T19:13:02.692Z,12.63
2022-11-06T19:16:06.870Z,15.55
2022-11-06T19:19:11.504Z,14.85
2022-11-06T19:22:16.075Z,14.40
2022-11-06T19:25:20.329Z,17.10
2022-11-06T19:32:15.042Z,16.90
2022-11-06T19:35:19.181Z,19.33
2022-11-06T19:38:22.687Z,16.40
2022-11-06T19:41:29.368Z,17.45
2022-11-06T19:44:33.030Z,20.15
2022-11-06T19:47:36.045Z,16.45
2022-11-06T19:50:58.837Z,19.05
2022-11-06T19:54:03.161Z,28.07
2022-11-06T19:57:29.665Z,23.17
2022-11-06T20:00:35.794Z,25.60
2022-11-06T20:03:38.704Z,21.30
2022-11-06T20:06:43.237Z,20.65
2022-11-06T20:09:45.768Z,17.30
2022-11-06T20:12:48.404Z,14.55
2022-11-06T20:15:51.207Z,16.38
2022-11-06T20:18:57.705Z,13.45
2022-11-06T20:22:03.449Z,14.98
2022-11-06T20:25:06.254Z,15.07
2022-11-06T20:28:08.948Z,12.65
2022-11-06T20:31:12.666Z,14.70
2022-11-06T20:34:15.623Z,12.52
2022-11-06T20:37:18.639Z,12.93
2022-11-06T20:40:21.376Z,12.67
2022-11-06T20:43:24.526Z,14.35
2022-11-06T20:46:30.409Z,14.82
2022-11-06T20:49:40.722Z,14.18
2022-11-06T20:52:43.899Z,15.63
2022-11-06T20:55:47.353Z,13.70
2022-11-06T20:58:49.712Z,12.63
2022-11-06T21:01:52.800Z,13.23
2022-11-06T21:04:56.023Z,14.93
2022-11-06T21:07:58.911Z,18.00
2022-11-06T21:11:06.439Z,19.57
2022-11-06T21:14:09.286Z,16.80
2022-11-06T21:17:12.049Z,16.10
2022-11-06T21:20:16.952Z,15.82
2022-11-06T21:23:23.600Z,13.85
2022-11-06T21:26:36.716Z,14.23
2022-11-06T21:29:40.440Z,13.57
2022-11-06T21:32:42.735Z,15.48
2022-11-06T21:35:45.128Z,15.23
2022-11-06T21:38:47.681Z,14.95
2022-11-06T21:41:49.939Z,14.87
2022-11-06T21:44:52.462Z,16.33
2022-11-06T21:47:54.689Z,16.95
2022-11-06T21:50:57.154Z,16.65
2022-11-06T21:54:18.530Z,16.45
2022-11-06T21:57:20.862Z,17.40
2022-11-06T22:00:23.057Z,17.83
2022-11-06T22:03:25.749Z,18.92
2022-11-06T22:06:29.779Z,18.15
2022-11-06T22:09:31.962Z,35.45
2022-11-06T22:12:34.557Z,25.80
2022-11-06T22:15:36.794Z,29.33
2022-11-06T22:18:39.506Z,30.55
2022-11-06T22:21:42.172Z,26.17
2022-11-06T22:24:44.401Z,19.95
2022-11-06T22:27:46.564Z,17.87
2022-11-06T22:30:48.811Z,15.55
2022-11-06T22:33:53.877Z,19.35
2022-11-06T22:36:56.182Z,18.70
2022-11-06T22:39:58.328Z,18.98
2022-11-06T22:43:00.566Z,19.43
2022-11-06T22:46:05.409Z,20.77
2022-11-06T22:49:07.739Z,21.95
2022-11-06T22:52:09.880Z,22.33
2022-11-06T22:55:12.074Z,20.90
2022-11-06T22:58:14.250Z,20.50
2022-11-06T23:01:21.314Z,22.13
2022-11-06T23:04:23.528Z,19.98
2022-11-06T23:07:25.724Z,19.80
2022-11-06T23:10:30.519Z,21.45
2022-11-06T23:13:32.748Z,23.07
2022-11-06T23:16:53.334Z,23.10
2022-11-06T23:19:55.978Z,24.23
2022-11-06T23:22:58.466Z,24.17
2022-11-06T23:26:10.532Z,23.65
2022-11-06T23:29:13.117Z,23.40
2022-11-06T23:32:15.328Z,23.98
2022-11-06T23:35:19.478Z,26.00
2022-11-06T23:38:23.550Z,24.75
2022-11-06T23:41:45.776Z,24.80
2022-11-06T23:45:08.028Z,25.47
2022-11-06T23:48:13.927Z,26.80
2022-11-06T23:51:16.222Z,28.75
2022-11-06T23:54:18.588Z,29.45
2022-11-06T23:57:21.316Z,28.88
